createdAt,value
2023-02-14T00:01:20.457Z,99.90
2023-02-14T00:03:49.293Z,99.90
2023-02-14T00:06:17.154Z,99.90
2023-02-14T00:08:45.382Z,99.90
2023-02-14T00:11:13.824Z,99.90
2023-02-14T00:14:01.080Z,99.90
2023-02-14T00:16:28.328Z,99.90
2023-02-14T00:19:04.503Z,99.90
2023-02-14T00:21:33.089Z,99.90
2023-02-14T00:24:00.784Z,99.90
2023-02-14T00:26:28.183Z,99.90
2023-02-14T00:28:55.360Z,99.90
2023-02-14T00:31:24.745Z,99.90
2023-02-14T00:33:52.023Z,99.90
2023-02-14T00:36:20.249Z,99.90
2023-02-14T00:38:47.385Z,99.90
2023-02-14T00:41:20.543Z,99.90
2023-02-14T00:43:49.336Z,99.90
2023-02-14T00:46:20.021Z,99.90
2023-02-14T00:48:47.933Z,99.90
2023-02-14T00:51:18.201Z,99.90
2023-02-14T00:53:47.702Z,99.90
2023-02-14T00:56:15.735Z,99.90
2023-02-14T00:58:43.436Z,99.90
2023-02-14T01:01:12.719Z,99.90
2023-02-14T01:03:40.220Z,99.90
2023-02-14T01:06:08.235Z,99.90
2023-02-14T01:08:36.088Z,99.90
2023-02-14T01:11:16.183Z,99.90
2023-02-14T01:13:44.464Z,99.90
2023-02-14T01:16:14.606Z,99.90
2023-02-14T01:18:42.638Z,99.90
2023-02-14T01:21:18.053Z,99.90
2023-02-14T01:23:48.396Z,99.90
2023-02-14T01:26:16.902Z,99.90
2023-02-14T01:28:45.134Z,99.90
2023-02-14T01:31:15.551Z,99.90
2023-02-14T01:33:44.693Z,99.90
2023-02-14T01:36:29.938Z,99.90
2023-02-14T01:39:00.131Z,99.90
2023-02-14T01:41:29.177Z,99.90
2023-02-14T01:44:02.758Z,99.90
2023-02-14T01:46:33.338Z,99.90
2023-02-14T01:49:09.236Z,99.90
2023-02-14T01:51:40.409Z,99.90
2023-02-14T01:54:09.380Z,99.90
2023-02-14T01:56:41.414Z,99.90
2023-02-14T01:59:16.040Z,99.90
2023-02-14T02:01:44.897Z,99.90
2023-02-14T02:04:17.884Z,99.90
2023-02-14T02:06:50.979Z,99.90
2023-02-14T02:09:38.933Z,99.90
2023-02-14T02:12:06.952Z,99.90
2023-02-14T02:14:34.988Z,99.90
2023-02-14T02:17:37.703Z,99.90
2023-02-14T02:20:25.167Z,99.90
2023-02-14T02:23:17.033Z,99.90
2023-02-14T02:26:06.745Z,99.90
2023-02-14T02:29:22.266Z,99.90
2023-02-14T02:32:11.375Z,99.90
2023-02-14T02:34:57.341Z,99.90
2023-02-14T02:38:03.074Z,99.90
2023-02-14T02:40:55.509Z,99.90
2023-02-14T02:43:30.925Z,99.90
2023-02-14T02:46:48.396Z,99.90
2023-02-14T02:50:10.192Z,99.90
2023-02-14T02:53:02.890Z,99.90
2023-02-14T02:56:08.784Z,99.90
2023-02-14T02:59:18.033Z,99.90
2023-02-14T03:02:17.577Z,99.90
2023-02-14T03:04:55.916Z,99.90
2023-02-14T03:07:40.967Z,99.90
2023-02-14T03:10:13.114Z,99.90
2023-02-14T03:12:59.764Z,99.90
2023-02-14T03:15:45.767Z,99.90
2023-02-14T03:18:53.666Z,99.90
2023-02-14T03:21:46.699Z,99.90
2023-02-14T03:24:33.317Z,99.90
2023-02-14T03:27:15.568Z,99.90
2023-02-14T03:30:09.327Z,99.90
2023-02-14T03:32:56.730Z,99.90
2023-02-14T03:35:32.194Z,99.90
2023-02-14T03:38:11.074Z,99.90
2023-02-14T03:40:54.517Z,99.90
2023-02-14T03:43:38.980Z,99.90
2023-02-14T03:46:16.264Z,99.90
2023-02-14T03:48:46.416Z,99.90
2023-02-14T03:51:15.898Z,99.90
2023-02-14T03:53:48.058Z,99.90
2023-02-14T03:56:21.208Z,99.90
2023-02-14T03:58:52.306Z,99.90
2023-02-14T04:01:27.831Z,99.90
2023-02-14T04:03:56.909Z,99.90
2023-02-14T04:06:24.326Z,99.90
2023-02-14T04:08:52.338Z,99.90
2023-02-14T04:11:19.583Z,99.90
2023-02-14T04:13:47.075Z,99.90
2023-02-14T04:16:14.351Z,99.90
2023-02-14T04:19:00.343Z,99.90
2023-02-14T04:21:27.551Z,99.90
2023-02-14T04:23:54.899Z,99.90
2023-02-14T04:26:22.090Z,99.90
2023-02-14T04:28:49.260Z,99.90
2023-02-14T04:31:17.338Z,99.90
2023-02-14T04:33:45.950Z,99.90
2023-02-14T04:36:14.504Z,99.90
2023-02-14T04:38:41.773Z,99.90
2023-02-14T04:41:08.963Z,99.90
2023-02-14T04:43:36.184Z,99.90
2023-02-14T04:46:03.464Z,99.90
2023-02-14T04:48:31.024Z,99.90
2023-02-14T04:50:59.299Z,99.90
2023-02-14T04:53:26.802Z,99.90
2023-02-14T04:55:53.966Z,99.90
2023-02-14T04:58:21.152Z,99.90
2023-02-14T05:00:48.386Z,99.90
2023-02-14T05:03:16.046Z,99.90
2023-02-14T05:05:43.225Z,99.90
2023-02-14T05:08:11.152Z,99.90
2023-02-14T05:10:39.126Z,99.90
2023-02-14T05:13:06.526Z,99.90
2023-02-14T05:15:33.722Z,99.90
2023-02-14T05:18:02.752Z,99.90
2023-02-14T05:20:30.307Z,99.90
2023-02-14T05:23:03.165Z,99.90
2023-02-14T05:25:31.499Z,99.90
2023-02-14T05:27:58.717Z,99.90
2023-02-14T05:30:27.909Z,99.90
2023-02-14T05:32:55.295Z,99.90
2023-02-14T05:35:22.966Z,99.90
2023-02-14T05:37:50.357Z,99.90
2023-02-14T05:40:18.227Z,99.90
2023-02-14T05:42:45.606Z,99.90
2023-02-14T05:45:13.508Z,99.90
2023-02-14T05:47:40.866Z,99.90
2023-02-14T05:50:08.626Z,99.90
2023-02-14T05:52:36.729Z,99.90
2023-02-14T05:55:04.438Z,99.90
2023-02-14T05:57:32.195Z,99.90
2023-02-14T05:59:59.465Z,99.90
2023-02-14T06:02:26.902Z,99.90
2023-02-14T06:04:54.288Z,99.90
2023-02-14T06:07:21.479Z,99.90
2023-02-14T06:09:49.275Z,99.90
2023-02-14T06:12:16.984Z,99.90
2023-02-14T06:14:45.605Z,99.90
2023-02-14T06:17:12.907Z,99.90
2023-02-14T06:19:40.971Z,99.90
2023-02-14T06:22:08.245Z,99.90
2023-02-14T06:24:35.529Z,99.90
2023-02-14T06:27:02.789Z,99.90
2023-02-14T06:29:30.068Z,99.90
2023-02-14T06:31:57.667Z,99.90
2023-02-14T06:34:24.926Z,99.90
2023-02-14T06:36:52.780Z,99.90
2023-02-14T06:39:20.129Z,99.90
2023-02-14T06:41:49.346Z,99.90
2023-02-14T06:44:17.283Z,99.90
2023-02-14T06:46:44.909Z,99.90
2023-02-14T06:49:12.191Z,99.90
2023-02-14T06:51:39.943Z,99.90
2023-02-14T06:54:08.889Z,99.90
2023-02-14T06:56:36.367Z,99.90
2023-02-14T06:59:03.776Z,99.90
2023-02-14T07:01:30.998Z,99.90
2023-02-14T07:03:58.282Z,99.90
2023-02-14T07:06:25.968Z,99.90
2023-02-14T07:08:53.216Z,99.90
2023-02-14T07:11:20.508Z,99.90
2023-02-14T07:13:49.443Z,99.90
2023-02-14T07:16:17.771Z,99.90
2023-02-14T07:18:45.011Z,99.90
2023-02-14T07:21:12.906Z,99.90
2023-02-14T07:23:40.545Z,99.90
2023-02-14T07:26:07.952Z,99.90
2023-02-14T07:28:35.526Z,99.90
2023-02-14T07:31:03.609Z,99.90
2023-02-14T07:33:31.606Z,99.90
2023-02-14T07:35:58.757Z,99.90
2023-02-14T07:38:25.979Z,99.90
2023-02-14T07:40:54.151Z,99.90
2023-02-14T07:43:22.030Z,99.90
2023-02-14T07:45:49.517Z,99.90
2023-02-14T07:48:16.702Z,99.90
2023-02-14T07:50:43.931Z,99.90
2023-02-14T07:53:11.584Z,99.90
2023-02-14T07:55:40.763Z,99.90
2023-02-14T07:58:08.178Z,99.90
2023-02-14T08:00:36.063Z,99.90
2023-02-14T08:03:03.358Z,99.90
2023-02-14T08:05:30.595Z,99.90
2023-02-14T08:07:57.748Z,99.90
2023-02-14T08:10:24.923Z,99.90
2023-02-14T08:12:58.704Z,99.90
2023-02-14T08:15:49.476Z,99.90
2023-02-14T08:18:18.232Z,99.90
2023-02-14T08:20:48.599Z,99.90
2023-02-14T08:23:17.141Z,99.90
2023-02-14T08:25:44.431Z,99.90
2023-02-14T08:28:14.021Z,99.90
2023-02-14T08:30:42.862Z,99.90
2023-02-14T08:33:10.521Z,99.90
2023-02-14T08:35:38.129Z,99.90
2023-02-14T08:38:06.385Z,99.90
2023-02-14T08:40:36.127Z,99.90
2023-02-14T08:43:07.543Z,99.90
2023-02-14T08:45:37.365Z,99.90
2023-02-14T08:48:06.746Z,99.90
2023-02-14T08:50:34.806Z,99.90
2023-02-14T08:53:06.137Z,99.90
2023-02-14T08:55:35.746Z,99.90
2023-02-14T08:58:03.653Z,99.90
2023-02-14T09:00:33.349Z,99.90
2023-02-14T09:03:00.786Z,99.90
2023-02-14T09:05:28.814Z,99.90
2023-02-14T09:07:56.397Z,99.90
2023-02-14T09:10:25.283Z,99.90
2023-02-14T09:12:52.848Z,99.90
2023-02-14T09:15:20.173Z,99.20
2023-02-14T09:17:48.099Z,98.40
2023-02-14T09:20:16.167Z,97.40
2023-02-14T09:22:47.093Z,96.00
2023-02-14T09:25:16.596Z,95.20
2023-02-14T09:27:43.770Z,95.00
2023-02-14T09:30:11.609Z,93.00
2023-02-14T09:32:38.879Z,93.70
2023-02-14T09:35:07.292Z,92.20
2023-02-14T09:37:34.500Z,91.50
2023-02-14T09:40:01.782Z,91.80
2023-02-14T09:42:54.775Z,91.10
2023-02-14T09:45:27.969Z,90.60
2023-02-14T09:48:06.141Z,89.80
2023-02-14T09:50:48.717Z,85.70
2023-02-14T09:53:29.833Z,92.40
2023-02-14T09:56:00.222Z,83.30
2023-02-14T09:58:39.000Z,83.90
2023-02-14T10:01:23.258Z,82.20
2023-02-14T10:04:16.796Z,80.10
2023-02-14T10:06:51.228Z,80.60
2023-02-14T10:09:33.213Z,79.30
2023-02-14T10:12:01.824Z,80.80
2023-02-14T10:14:40.606Z,78.80
2023-02-14T10:17:23.498Z,78.10
2023-02-14T10:20:16.532Z,76.40
2023-02-14T10:22:56.291Z,76.50
2023-02-14T10:25:40.183Z,73.10
2023-02-14T10:28:13.402Z,75.00
2023-02-14T10:30:50.190Z,73.40
2023-02-14T10:33:22.583Z,72.30
2023-02-14T10:35:58.905Z,71.00
2023-02-14T10:38:38.780Z,69.60
2023-02-14T10:41:26.469Z,67.80
2023-02-14T10:44:25.578Z,68.70
2023-02-14T10:47:23.243Z,68.30
2023-02-14T10:50:28.960Z,67.40
2023-02-14T10:53:17.009Z,68.10
2023-02-14T10:55:55.328Z,63.90
2023-02-14T10:58:25.598Z,65.80
2023-02-14T11:01:03.854Z,63.00
2023-02-14T11:03:34.716Z,59.60
2023-02-14T11:06:51.730Z,59.90
2023-02-14T11:09:20.891Z,60.90
2023-02-14T11:11:59.663Z,61.60
2023-02-14T11:14:38.750Z,61.20
2023-02-14T11:17:29.244Z,59.20
2023-02-14T11:20:02.478Z,58.10
2023-02-14T11:22:32.131Z,58.00
2023-02-14T11:25:07.540Z,56.60
2023-02-14T11:27:37.949Z,55.40
2023-02-14T11:30:19.660Z,55.10
2023-02-14T11:32:56.011Z,54.60
2023-02-14T11:35:30.467Z,54.80
2023-02-14T11:38:49.670Z,54.60
2023-02-14T11:41:18.016Z,54.00
2023-02-14T11:43:45.779Z,51.90
2023-02-14T11:46:16.149Z,50.10
2023-02-14T11:49:03.520Z,51.00
2023-02-14T11:51:34.862Z,50.40
2023-02-14T11:54:07.693Z,52.20
2023-02-14T11:56:48.332Z,50.50
2023-02-14T11:59:32.909Z,51.90
2023-02-14T12:02:22.690Z,51.70
2023-02-14T12:04:54.430Z,49.80
2023-02-14T12:07:27.897Z,51.90
2023-02-14T12:10:17.091Z,51.20
2023-02-14T12:12:59.101Z,49.40
2023-02-14T12:15:38.094Z,50.40
2023-02-14T12:18:36.479Z,49.20
2023-02-14T12:21:22.119Z,49.70
2023-02-14T12:23:56.719Z,49.70
2023-02-14T12:26:40.495Z,47.60
2023-02-14T12:29:26.852Z,48.50
2023-02-14T12:32:00.681Z,47.70
2023-02-14T12:35:01.571Z,48.10
2023-02-14T12:37:37.845Z,47.30
2023-02-14T12:40:21.117Z,47.50
2023-02-14T12:43:03.255Z,48.20
2023-02-14T12:45:55.059Z,48.90
2023-02-14T12:48:47.144Z,48.60
2023-02-14T12:51:30.304Z,47.80
2023-02-14T12:54:35.107Z,47.30
2023-02-14T12:57:21.048Z,48.40
2023-02-14T13:00:12.589Z,48.80
2023-02-14T13:03:11.345Z,50.20
2023-02-14T13:05:58.370Z,49.20
2023-02-14T13:09:01.801Z,50.30
2023-02-14T13:11:38.708Z,50.30
2023-02-14T13:14:14.979Z,50.00
2023-02-14T13:17:03.796Z,50.10
2023-02-14T13:19:55.441Z,51.30
2023-02-14T13:22:25.323Z,51.50
2023-02-14T13:25:04.137Z,50.60
2023-02-14T13:27:34.281Z,50.00
2023-02-14T13:30:06.365Z,50.80
2023-02-14T13:32:40.690Z,52.10
2023-02-14T13:35:15.345Z,51.70
2023-02-14T13:37:46.561Z,50.60
2023-02-14T13:40:21.791Z,50.00
2023-02-14T13:42:49.651Z,51.70
2023-02-14T13:45:30.283Z,52.30
2023-02-14T13:48:16.143Z,52.90
2023-02-14T13:51:00.650Z,52.80
2023-02-14T13:53:48.075Z,53.50
2023-02-14T13:56:15.370Z,53.30
2023-02-14T13:58:52.179Z,54.70
2023-02-14T14:01:30.516Z,54.90
2023-02-14T14:04:08.386Z,56.00
2023-02-14T14:07:03.789Z,56.10
2023-02-14T14:09:47.482Z,55.50
2023-02-14T14:12:27.131Z,54.80
2023-02-14T14:15:07.019Z,54.30
2023-02-14T14:17:41.296Z,56.50
2023-02-14T14:20:20.449Z,56.30
2023-02-14T14:22:54.787Z,58.00
2023-02-14T14:25:32.313Z,57.70
2023-02-14T14:28:00.307Z,57.80
2023-02-14T14:30:33.479Z,57.80
2023-02-14T14:33:37.622Z,59.50
2023-02-14T14:36:11.086Z,63.30
2023-02-14T14:38:49.820Z,63.30
2023-02-14T14:41:17.824Z,64.70
2023-02-14T14:43:45.154Z,65.30
2023-02-14T14:46:14.290Z,65.90
2023-02-14T14:48:50.994Z,66.80
2023-02-14T14:51:29.894Z,67.80
2023-02-14T14:54:05.768Z,68.80
2023-02-14T14:56:37.065Z,68.90
2023-02-14T14:59:29.453Z,69.10
2023-02-14T15:01:57.030Z,70.80
2023-02-14T15:04:30.261Z,72.10
2023-02-14T15:07:17.280Z,72.20
2023-02-14T15:09:44.760Z,71.70
2023-02-14T15:12:35.771Z,73.20
2023-02-14T15:15:04.519Z,73.60
2023-02-14T15:17:32.939Z,74.70
2023-02-14T15:20:24.771Z,75.90
2023-02-14T15:22:53.363Z,76.00
2023-02-14T15:25:25.512Z,77.00
2023-02-14T15:27:53.631Z,77.30
2023-02-14T15:30:54.974Z,78.40
2023-02-14T15:33:22.425Z,79.40
2023-02-14T15:35:50.459Z,80.80
2023-02-14T15:38:21.719Z,81.90
2023-02-14T15:40:49.480Z,82.70
2023-02-14T15:43:34.709Z,83.50
2023-02-14T15:46:37.188Z,84.60
2023-02-14T15:49:14.859Z,85.90
2023-02-14T15:51:43.190Z,87.40
2023-02-14T15:54:33.245Z,88.00
2023-02-14T15:57:01.199Z,89.90
2023-02-14T15:59:33.379Z,90.50
2023-02-14T16:02:37.033Z,91.10
2023-02-14T16:05:17.207Z,91.90
2023-02-14T16:08:24.564Z,92.90
2023-02-14T16:11:13.552Z,94.10
2023-02-14T16:13:43.914Z,95.50
2023-02-14T16:16:13.138Z,96.70
2023-02-14T16:18:47.400Z,98.00
2023-02-14T16:21:27.345Z,99.50
2023-02-14T16:24:07.375Z,99.90
2023-02-14T16:26:37.824Z,99.90
2023-02-14T16:29:13.564Z,99.90
2023-02-14T16:32:01.221Z,99.90
2023-02-14T16:34:32.128Z,99.90
2023-02-14T16:37:08.289Z,99.90
2023-02-14T16:39:35.897Z,99.90
2023-02-14T16:42:04.010Z,99.90
2023-02-14T16:44:31.417Z,99.90
2023-02-14T16:46:58.681Z,99.90
2023-02-14T16:49:25.973Z,99.90
2023-02-14T16:51:55.390Z,99.90
2023-02-14T16:54:26.338Z,99.90
2023-02-14T16:56:57.626Z,99.90
2023-02-14T16:59:25.727Z,99.90
2023-02-14T17:01:53.741Z,99.90
2023-02-14T17:04:21.141Z,99.90
2023-02-14T17:06:57.003Z,99.90
2023-02-14T17:09:33.217Z,99.90
2023-02-14T17:12:05.366Z,99.90
2023-02-14T17:14:36.955Z,99.90
2023-02-14T17:17:04.287Z,99.90
2023-02-14T17:19:34.028Z,99.90
2023-02-14T17:22:01.351Z,99.90
2023-02-14T17:24:29.907Z,99.90
2023-02-14T17:26:57.140Z,99.90
2023-02-14T17:29:24.356Z,99.90
2023-02-14T17:31:51.651Z,99.90
2023-02-14T17:34:18.935Z,99.90
2023-02-14T17:36:46.412Z,99.90
2023-02-14T17:39:14.757Z,99.90
2023-02-14T17:41:41.933Z,99.90
2023-02-14T17:44:09.374Z,99.90
2023-02-14T17:46:36.672Z,99.90
2023-02-14T17:49:04.010Z,99.90
2023-02-14T17:51:31.434Z,99.90
2023-02-14T17:53:59.174Z,99.90
2023-02-14T17:56:26.633Z,99.90
2023-02-14T17:58:56.543Z,99.90
2023-02-14T18:01:26.595Z,99.90
2023-02-14T18:03:54.878Z,99.90
2023-02-14T18:06:22.506Z,99.90
2023-02-14T18:08:52.599Z,99.90
2023-02-14T18:11:21.282Z,99.90
2023-02-14T18:13:49.750Z,99.90
2023-02-14T18:16:22.179Z,99.90
2023-02-14T18:18:49.404Z,99.90
2023-02-14T18:21:21.681Z,99.90
2023-02-14T18:23:48.946Z,99.90
2023-02-14T18:26:18.024Z,99.90
2023-02-14T18:28:48.821Z,99.90
2023-02-14T18:31:18.018Z,99.90
2023-02-14T18:33:46.757Z,99.90
2023-02-14T18:36:16.453Z,99.90
2023-02-14T18:38:45.784Z,99.90
2023-02-14T18:41:15.937Z,99.90
2023-02-14T18:43:44.491Z,99.90
2023-02-14T18:46:27.309Z,99.90
2023-02-14T18:48:56.658Z,99.90
2023-02-14T18:51:27.081Z,99.90
2023-02-14T18:53:57.128Z,99.90
2023-02-14T18:56:28.614Z,99.90
2023-02-14T18:59:01.511Z,99.90
2023-02-14T19:01:31.339Z,99.90
2023-02-14T19:04:00.367Z,99.90
2023-02-14T19:06:30.796Z,99.90
2023-02-14T19:08:58.294Z,99.90
2023-02-14T19:11:28.025Z,99.90
2023-02-14T19:13:57.393Z,99.90
2023-02-14T19:16:28.322Z,99.90
2023-02-14T19:18:56.034Z,99.90
2023-02-14T19:21:25.644Z,99.90
2023-02-14T19:23:55.936Z,99.90
2023-02-14T19:26:27.253Z,99.90
2023-02-14T19:28:57.961Z,99.90
2023-02-14T19:31:25.768Z,99.90
2023-02-14T19:33:53.416Z,99.90
2023-02-14T19:36:22.597Z,99.90
2023-02-14T19:38:53.265Z,99.90
2023-02-14T19:41:23.980Z,99.90
2023-02-14T19:43:52.559Z,99.90
2023-02-14T19:46:21.566Z,99.90
2023-02-14T19:48:53.073Z,99.90
2023-02-14T19:51:30.377Z,99.90
2023-02-14T19:53:59.281Z,99.90
2023-02-14T19:56:29.604Z,99.90
2023-02-14T19:58:57.652Z,99.90
2023-02-14T20:01:34.240Z,99.90
2023-02-14T20:04:02.149Z,99.90
2023-02-14T20:06:30.344Z,99.90
2023-02-14T20:08:58.010Z,99.90
2023-02-14T20:11:46.169Z,99.90
2023-02-14T20:14:14.194Z,99.90
2023-02-14T20:16:41.704Z,99.90
2023-02-14T20:19:16.392Z,99.90
2023-02-14T20:21:47.563Z,99.90
2023-02-14T20:24:20.205Z,99.90
2023-02-14T20:26:48.308Z,99.90
2023-02-14T20:29:16.856Z,99.90
2023-02-14T20:31:48.300Z,99.90
2023-02-14T20:34:16.332Z,99.90
2023-02-14T20:36:49.228Z,99.90
2023-02-14T20:39:16.477Z,99.90
2023-02-14T20:41:46.219Z,99.90
2023-02-14T20:44:15.410Z,99.90
2023-02-14T20:46:42.641Z,99.90
2023-02-14T20:49:12.378Z,99.90
2023-02-14T20:51:40.717Z,99.90
2023-02-14T20:54:08.003Z,99.90
2023-02-14T20:56:35.785Z,99.90
2023-02-14T20:59:03.391Z,99.90
2023-02-14T21:01:30.653Z,99.90
2023-02-14T21:03:58.142Z,99.90
2023-02-14T21:06:31.755Z,99.90
2023-02-14T21:09:02.034Z,99.90
2023-02-14T21:11:29.298Z,99.90
2023-02-14T21:13:59.894Z,99.90
2023-02-14T21:16:28.720Z,99.90
2023-02-14T21:19:00.724Z,99.90
2023-02-14T21:21:35.931Z,99.90
2023-02-14T21:24:12.460Z,99.90
2023-02-14T21:26:39.937Z,99.90
2023-02-14T21:29:08.475Z,99.90
2023-02-14T21:31:36.869Z,99.90
2023-02-14T21:34:04.747Z,99.90
2023-02-14T21:36:35.614Z,99.90
2023-02-14T21:39:04.308Z,99.90
2023-02-14T21:41:32.143Z,99.90
2023-02-14T21:44:00.856Z,99.90
2023-02-14T21:46:31.844Z,99.90
2023-02-14T21:49:23.306Z,99.90
2023-02-14T21:51:50.832Z,99.90
2023-02-14T21:54:19.077Z,99.90
2023-02-14T21:56:47.048Z,99.90
2023-02-14T21:59:14.243Z,99.90
2023-02-14T22:01:42.417Z,99.90
2023-02-14T22:04:12.258Z,99.90
2023-02-14T22:06:41.474Z,99.90
2023-02-14T22:09:10.849Z,99.90
2023-02-14T22:11:38.331Z,99.90
2023-02-14T22:14:05.531Z,99.90
2023-02-14T22:16:32.773Z,99.90
2023-02-14T22:18:59.942Z,99.90
2023-02-14T22:21:27.478Z,99.90
2023-02-14T22:23:55.607Z,99.90
2023-02-14T22:26:26.008Z,99.90
2023-02-14T22:28:57.221Z,99.90
2023-02-14T22:31:26.692Z,99.90
2023-02-14T22:33:54.448Z,99.90
2023-02-14T22:36:22.038Z,99.90
2023-02-14T22:38:49.700Z,99.90
2023-02-14T22:41:19.439Z,99.90
2023-02-14T22:43:46.968Z,99.90
2023-02-14T22:46:17.164Z,99.90
2023-02-14T22:48:44.572Z,99.90
2023-02-14T22:51:24.871Z,99.90
2023-02-14T22:53:54.372Z,99.90
2023-02-14T22:56:27.108Z,99.90
2023-02-14T22:58:56.256Z,99.90
2023-02-14T23:01:24.996Z,99.90
2023-02-14T23:03:57.985Z,99.90
2023-02-14T23:06:27.118Z,99.90
2023-02-14T23:08:54.955Z,99.90
2023-02-14T23:11:28.021Z,99.90
2023-02-14T23:14:14.777Z,99.90
2023-02-14T23:17:01.425Z,99.90
2023-02-14T23:19:50.526Z,99.90
2023-02-14T23:22:23.778Z,99.90
2023-02-14T23:24:53.484Z,99.90
2023-02-14T23:27:23.861Z,99.90
2023-02-14T23:29:51.196Z,99.90
2023-02-14T23:32:18.931Z,99.90
2023-02-14T23:34:46.803Z,99.90
2023-02-14T23:37:14.579Z,99.90
2023-02-14T23:39:42.081Z,99.90
2023-02-14T23:42:13.568Z,99.90
2023-02-14T23:44:43.306Z,99.90
2023-02-14T23:47:11.768Z,99.90
2023-02-14T23:49:40.581Z,99.90
2023-02-14T23:52:10.373Z,99.90
2023-02-14T23:54:37.943Z,99.90
2023-02-14T23:57:07.305Z,99.90
2023-02-14T23:59:34.480Z,99.90
